Time;durP1;ratioP1;P1;durP2;ratioP2;P2;SDS_P1;SDS_P2;PMS_P1;PMS_P2;Temp;Humidity;BMP_temperature;BMP_pressure;BME280_temperature;BME280_humidity;BME280_pressure;Samples;Min_cycle;Max_cycle;Signal;HPM_P1;HPM_P2
2023/05/15 00:02:15;;;;;;;;;;;10.30;99.90;;;;;;5114080;28;20015;-54
2023/05/15 00:04:42;;;;;;;;;;;9.90;99.90;;;;;;5113781;28;19999;-55
2023/05/15 00:07:08;;;;;;;;;;;9.90;99.90;;;;;;5097254;28;19920;-57
2023/05/15 00:09:35;;;;;;;;;;;9.90;99.90;;;;;;5094159;28;20011;-53
2023/05/15 00:12:02;;;;;;;;;;;9.90;99.90;;;;;;5094002;28;19924;-53
2023/05/15 00:14:28;;;;;;;;;;;9.90;99.90;;;;;;5105665;28;19959;-55
2023/05/15 00:16:55;;;;;;;;;;;9.80;99.90;;;;;;5112976;28;19919;-58
2023/05/15 00:19:22;;;;;;;;;;;9.90;99.90;;;;;;5110818;28;19982;-55
2023/05/15 00:21:48;;;;;;;;;;;9.80;99.90;;;;;;5108401;28;19920;-55
2023/05/15 00:24:15;;;;;;;;;;;9.90;99.90;;;;;;5105565;28;20405;-54
2023/05/15 00:26:42;;;;;;;;;;;9.90;99.90;;;;;;5099219;28;19920;-56
2023/05/15 00:29:09;;;;;;;;;;;9.90;99.90;;;;;;5110214;28;20371;-53
2023/05/15 00:31:37;;;;;;;;;;;9.90;99.90;;;;;;5104983;28;19924;-56
2023/05/15 00:34:04;;;;;;;;;;;9.90;99.90;;;;;;5086601;28;19972;-57
2023/05/15 00:36:31;;;;;;;;;;;9.80;99.90;;;;;;5096991;28;20380;-55
2023/05/15 00:38:57;;;;;;;;;;;9.90;99.90;;;;;;5112576;28;19927;-55
2023/05/15 00:41:27;;;;;;;;;;;9.90;99.90;;;;;;5112597;28;19920;-55
2023/05/15 00:43:54;;;;;;;;;;;9.90;99.90;;;;;;5094381;28;20372;-58
2023/05/15 00:46:21;;;;;;;;;;;9.80;99.90;;;;;;5110621;28;20590;-57
2023/05/15 00:48:49;;;;;;;;;;;9.80;99.90;;;;;;5091925;28;20011;-56
2023/05/15 00:51:16;;;;;;;;;;;9.90;99.90;;;;;;5085217;28;19920;-58
2023/05/15 00:53:43;;;;;;;;;;;9.80;99.90;;;;;;5111331;28;20386;-57
2023/05/15 00:56:11;;;;;;;;;;;9.80;99.90;;;;;;5094823;28;20011;-55
2023/05/15 00:58:38;;;;;;;;;;;9.80;99.90;;;;;;5092387;28;19920;-56
2023/05/15 01:01:05;;;;;;;;;;;9.80;99.90;;;;;;5084612;28;19920;-57
2023/05/15 01:03:34;;;;;;;;;;;9.80;99.90;;;;;;5080335;28;19920;-57
2023/05/15 01:06:01;;;;;;;;;;;9.80;99.90;;;;;;5073890;28;20368;-55
2023/05/15 01:08:40;;;;;;;;;;;9.80;99.90;;;;;;5112848;28;19919;-57
2023/05/15 01:11:08;;;;;;;;;;;9.80;99.90;;;;;;5086346;28;19931;-57
2023/05/15 01:13:34;;;;;;;;;;;10.10;99.90;;;;;;5104531;28;20368;-57
2023/05/15 01:16:01;;;;;;;;;;;9.80;99.90;;;;;;5086561;28;20369;-56
2023/05/15 01:18:31;;;;;;;;;;;9.80;99.90;;;;;;5104103;28;19935;-55
2023/05/15 01:21:04;;;;;;;;;;;9.80;99.90;;;;;;5098151;22;19921;-56
2023/05/15 01:23:49;;;;;;;;;;;9.80;99.90;;;;;;5024108;28;19932;-58
2023/05/15 01:26:45;;;;;;;;;;;9.80;99.90;;;;;;5021780;28;19925;-56
2023/05/15 01:29:22;;;;;;;;;;;9.80;99.90;;;;;;4961564;28;19926;-55
2023/05/15 01:32:02;;;;;;;;;;;9.80;99.90;;;;;;5091914;22;19965;-57
2023/05/15 01:34:56;;;;;;;;;;;9.80;99.90;;;;;;5122627;27;19957;-57
2023/05/15 01:37:23;;;;;;;;;;;9.80;99.90;;;;;;5122023;27;20325;-56
2023/05/15 01:39:54;;;;;;;;;;;9.80;99.90;;;;;;5123122;27;19920;-58
2023/05/15 01:42:23;;;;;;;;;;;9.70;99.90;;;;;;5118323;22;20416;-55
2023/05/15 01:44:51;;;;;;;;;;;9.80;99.90;;;;;;5081012;28;19969;-56
2023/05/15 01:47:20;;;;;;;;;;;9.70;99.90;;;;;;5100759;28;19920;-56
2023/05/15 01:49:48;;;;;;;;;;;9.80;99.90;;;;;;5074647;28;19920;-55
2023/05/15 01:52:17;;;;;;;;;;;9.70;99.90;;;;;;5088680;28;19964;-54
2023/05/15 01:54:45;;;;;;;;;;;10.10;99.90;;;;;;5085371;28;20371;-57
2023/05/15 01:57:12;;;;;;;;;;;9.70;99.90;;;;;;5093540;28;19920;-56
2023/05/15 01:59:40;;;;;;;;;;;9.70;99.90;;;;;;5073170;28;19931;-54
2023/05/15 02:02:08;;;;;;;;;;;9.70;99.90;;;;;;5090074;28;20618;-57
2023/05/15 02:04:35;;;;;;;;;;;9.70;99.90;;;;;;5079129;28;20011;-54
2023/05/15 02:07:02;;;;;;;;;;;9.70;99.90;;;;;;5081986;28;20337;-58
2023/05/15 02:09:30;;;;;;;;;;;9.70;99.90;;;;;;5084941;28;20380;-57
2023/05/15 02:11:59;;;;;;;;;;;9.70;99.90;;;;;;5076279;28;19920;-58
2023/05/15 02:14:30;;;;;;;;;;;9.70;99.90;;;;;;5078460;28;19992;-57
2023/05/15 02:16:56;;;;;;;;;;;9.70;99.90;;;;;;5076676;28;20373;-58
2023/05/15 02:19:23;;;;;;;;;;;9.70;99.90;;;;;;5075451;28;19969;-57
2023/05/15 02:21:50;;;;;;;;;;;9.70;99.90;;;;;;5093407;28;19927;-57
2023/05/15 02:24:16;;;;;;;;;;;9.70;99.90;;;;;;5102694;28;20319;-58
2023/05/15 02:26:49;;;;;;;;;;;9.80;99.90;;;;;;5097953;28;20342;-54
2023/05/15 02:29:20;;;;;;;;;;;9.80;99.90;;;;;;5071274;28;19920;-56
2023/05/15 02:32:02;;;;;;;;;;;9.80;99.90;;;;;;5085500;28;19923;-58
2023/05/15 02:34:40;;;;;;;;;;;9.80;99.90;;;;;;5075558;28;19931;-56
2023/05/15 02:37:09;;;;;;;;;;;9.80;99.90;;;;;;5076036;28;19969;-58
2023/05/15 02:39:36;;;;;;;;;;;9.80;99.90;;;;;;5084411;28;19953;-58
2023/05/15 02:42:05;;;;;;;;;;;9.70;99.90;;;;;;5112891;22;20424;-58
2023/05/15 02:44:33;;;;;;;;;;;9.80;99.90;;;;;;5132905;27;19923;-58
2023/05/15 02:47:03;;;;;;;;;;;9.80;99.90;;;;;;5136046;27;19930;-58
2023/05/15 02:49:32;;;;;;;;;;;9.80;99.90;;;;;;5116130;27;19919;-57
2023/05/15 02:51:58;;;;;;;;;;;9.90;99.90;;;;;;5113759;27;19920;-57
2023/05/15 02:54:25;;;;;;;;;;;9.90;99.90;;;;;;5107056;28;19923;-57
2023/05/15 02:56:52;;;;;;;;;;;9.90;99.90;;;;;;5097391;28;20394;-58
2023/05/15 02:59:18;;;;;;;;;;;9.80;99.90;;;;;;5096061;28;19957;-56
2023/05/15 03:01:45;;;;;;;;;;;9.90;99.90;;;;;;5095245;28;19942;-58
2023/05/15 03:04:13;;;;;;;;;;;9.90;99.90;;;;;;5115265;28;19920;-57
2023/05/15 03:06:40;;;;;;;;;;;9.90;99.90;;;;;;5108130;28;19919;-55
2023/05/15 03:09:07;;;;;;;;;;;10.00;99.90;;;;;;5114674;28;19927;-58
2023/05/15 03:11:33;;;;;;;;;;;10.00;99.90;;;;;;5100475;22;19924;-57
2023/05/15 03:14:00;;;;;;;;;;;9.90;99.90;;;;;;5088117;28;19927;-56
2023/05/15 03:16:27;;;;;;;;;;;9.90;99.90;;;;;;5094102;28;19973;-58
2023/05/15 03:18:53;;;;;;;;;;;9.90;99.90;;;;;;5097125;28;19975;-57
2023/05/15 03:21:20;;;;;;;;;;;9.90;99.90;;;;;;5091296;28;19973;-57
2023/05/15 03:23:47;;;;;;;;;;;9.90;99.90;;;;;;5082370;28;19924;-57
2023/05/15 03:26:13;;;;;;;;;;;9.90;99.90;;;;;;5100258;28;19977;-55
2023/05/15 03:28:40;;;;;;;;;;;9.90;99.90;;;;;;5104483;28;19919;-58
2023/05/15 03:31:08;;;;;;;;;;;9.80;99.90;;;;;;5083078;28;19920;-58
2023/05/15 03:33:35;;;;;;;;;;;9.80;99.90;;;;;;5084470;28;19920;-57
2023/05/15 03:36:01;;;;;;;;;;;9.80;99.90;;;;;;5103074;28;19924;-56
2023/05/15 03:38:28;;;;;;;;;;;9.80;99.90;;;;;;5101162;28;20082;-55
2023/05/15 03:40:55;;;;;;;;;;;9.80;99.90;;;;;;5102696;28;19980;-57
2023/05/15 03:43:22;;;;;;;;;;;10.50;99.90;;;;;;5102479;28;19988;-57
2023/05/15 03:45:49;;;;;;;;;;;9.80;99.90;;;;;;5098901;28;19969;-58
2023/05/15 03:48:15;;;;;;;;;;;9.80;99.90;;;;;;5086269;28;19920;-56
2023/05/15 03:50:43;;;;;;;;;;;9.80;99.90;;;;;;5102205;28;19920;-54
2023/05/15 03:53:09;;;;;;;;;;;9.80;99.90;;;;;;5099764;28;19920;-55
2023/05/15 03:55:36;;;;;;;;;;;9.80;99.90;;;;;;5085700;28;19959;-55
2023/05/15 03:58:04;;;;;;;;;;;9.70;99.90;;;;;;5083129;28;19934;-56
2023/05/15 04:00:32;;;;;;;;;;;9.70;99.90;;;;;;5103862;28;20009;-57
2023/05/15 04:03:00;;;;;;;;;;;9.70;99.90;;;;;;5100869;28;19949;-57
2023/05/15 04:05:27;;;;;;;;;;;9.80;99.90;;;;;;5099472;28;19984;-56
2023/05/15 04:07:54;;;;;;;;;;;9.80;99.90;;;;;;5102966;27;20346;-53
2023/05/15 04:10:20;;;;;;;;;;;9.80;99.90;;;;;;5102903;28;20306;-55
2023/05/15 04:12:47;;;;;;;;;;;9.70;99.90;;;;;;5099086;28;20276;-57
2023/05/15 04:15:14;;;;;;;;;;;9.70;99.90;;;;;;5103957;28;20081;-57
2023/05/15 04:17:41;;;;;;;;;;;9.80;99.90;;;;;;5099095;28;19919;-58
2023/05/15 04:20:08;;;;;;;;;;;9.80;99.90;;;;;;5102934;28;19920;-57
2023/05/15 04:22:35;;;;;;;;;;;9.70;99.90;;;;;;5100260;28;19928;-58
2023/05/15 04:25:03;;;;;;;;;;;9.70;99.90;;;;;;5099679;28;19963;-56
2023/05/15 04:27:30;;;;;;;;;;;9.70;99.90;;;;;;5102253;28;20292;-55
2023/05/15 04:29:56;;;;;;;;;;;9.70;99.90;;;;;;5102782;28;19920;-54
2023/05/15 04:32:23;;;;;;;;;;;9.70;99.90;;;;;;5110165;28;19919;-54
2023/05/15 04:34:50;;;;;;;;;;;9.70;99.90;;;;;;5105386;28;20002;-57
2023/05/15 04:37:16;;;;;;;;;;;9.70;99.90;;;;;;5101022;28;19965;-57
2023/05/15 04:39:43;;;;;;;;;;;9.70;99.90;;;;;;5098724;28;19927;-55
2023/05/15 04:42:10;;;;;;;;;;;9.70;99.90;;;;;;5090656;28;19966;-56
2023/05/15 04:44:37;;;;;;;;;;;9.70;99.90;;;;;;5096449;28;19959;-56
2023/05/15 04:47:03;;;;;;;;;;;9.70;99.90;;;;;;5098433;28;19963;-55
2023/05/15 04:49:30;;;;;;;;;;;9.60;99.90;;;;;;5101874;28;19977;-57
2023/05/15 04:51:57;;;;;;;;;;;9.70;99.90;;;;;;5100277;28;19949;-54
2023/05/15 04:54:23;;;;;;;;;;;9.60;99.90;;;;;;5101457;28;20310;-58
2023/05/15 04:56:50;;;;;;;;;;;9.70;99.90;;;;;;5101307;28;19920;-55
2023/05/15 04:59:17;;;;;;;;;;;9.60;99.90;;;;;;5100256;28;19919;-58
2023/05/15 05:01:44;;;;;;;;;;;9.60;99.90;;;;;;5097613;28;20024;-59
2023/05/15 05:04:11;;;;;;;;;;;9.60;99.90;;;;;;5102776;28;19924;-58
2023/05/15 05:06:37;;;;;;;;;;;9.60;99.90;;;;;;5079216;28;20010;-57
2023/05/15 05:09:04;;;;;;;;;;;9.60;99.90;;;;;;5100563;28;19967;-58
2023/05/15 05:11:31;;;;;;;;;;;9.60;99.90;;;;;;5102196;28;19984;-57
2023/05/15 05:13:58;;;;;;;;;;;9.70;99.90;;;;;;5099435;28;19973;-58
2023/05/15 05:16:24;;;;;;;;;;;9.70;99.90;;;;;;5101466;28;19923;-58
2023/05/15 05:18:51;;;;;;;;;;;9.60;99.90;;;;;;5097194;28;19924;-57
2023/05/15 05:21:18;;;;;;;;;;;9.70;99.90;;;;;;5095972;28;19927;-57
2023/05/15 05:23:46;;;;;;;;;;;9.70;99.90;;;;;;5093237;28;19936;-58
2023/05/15 05:26:12;;;;;;;;;;;9.60;99.90;;;;;;5092650;28;19920;-58
2023/05/15 05:28:39;;;;;;;;;;;9.60;99.90;;;;;;5098930;28;19959;-58
2023/05/15 05:31:06;;;;;;;;;;;9.60;99.90;;;;;;5092122;28;19920;-57
2023/05/15 05:33:33;;;;;;;;;;;9.60;99.90;;;;;;5091509;28;20394;-56
2023/05/15 05:36:00;;;;;;;;;;;9.60;99.90;;;;;;5091796;28;20057;-58
2023/05/15 05:38:26;;;;;;;;;;;9.60;99.90;;;;;;5093260;28;19942;-58
2023/05/15 05:40:53;;;;;;;;;;;9.60;99.90;;;;;;5107099;28;20375;-55
2023/05/15 05:43:19;;;;;;;;;;;9.50;99.90;;;;;;5103522;28;19920;-57
2023/05/15 05:45:46;;;;;;;;;;;9.50;99.90;;;;;;5103215;28;19981;-56
2023/05/15 05:48:13;;;;;;;;;;;9.50;99.90;;;;;;5111881;28;19920;-56
2023/05/15 05:50:39;;;;;;;;;;;9.50;99.90;;;;;;5100135;28;20338;-57
2023/05/15 05:53:06;;;;;;;;;;;9.50;99.90;;;;;;5091920;28;19920;-57
2023/05/15 05:55:33;;;;;;;;;;;9.50;99.90;;;;;;5104932;28;19964;-58
2023/05/15 05:58:00;;;;;;;;;;;9.80;99.90;;;;;;5107265;28;19969;-56
2023/05/15 06:00:27;;;;;;;;;;;9.50;99.90;;;;;;5100264;28;19920;-56
2023/05/15 06:02:56;;;;;;;;;;;9.50;99.90;;;;;;5078676;28;19919;-57
2023/05/15 06:05:24;;;;;;;;;;;9.60;99.90;;;;;;5109152;28;20386;-57
2023/05/15 06:07:51;;;;;;;;;;;9.60;99.90;;;;;;5099627;28;19920;-58
2023/05/15 06:10:18;;;;;;;;;;;9.60;99.90;;;;;;5109492;28;20379;-58
2023/05/15 06:12:45;;;;;;;;;;;9.50;99.90;;;;;;5110635;28;19924;-58
2023/05/15 06:15:12;;;;;;;;;;;9.40;99.90;;;;;;5113961;28;19966;-57
2023/05/15 06:17:38;;;;;;;;;;;9.50;99.90;;;;;;5091310;28;19960;-56
2023/05/15 06:20:07;;;;;;;;;;;9.50;99.90;;;;;;5116177;28;19919;-57
2023/05/15 06:22:34;;;;;;;;;;;9.50;99.90;;;;;;5115062;27;20391;-56
2023/05/15 06:25:01;;;;;;;;;;;9.50;99.90;;;;;;5116052;28;19931;-57
2023/05/15 06:27:28;;;;;;;;;;;9.40;99.90;;;;;;5107233;28;20019;-56
2023/05/15 06:29:55;;;;;;;;;;;9.40;99.90;;;;;;5116237;28;19924;-56
2023/05/15 06:32:21;;;;;;;;;;;9.50;99.90;;;;;;5103339;28;19920;-57
2023/05/15 06:34:48;;;;;;;;;;;9.40;99.90;;;;;;5099146;28;19969;-57
2023/05/15 06:37:15;;;;;;;;;;;9.40;99.90;;;;;;5087788;28;20392;-56
2023/05/15 06:39:41;;;;;;;;;;;9.40;99.90;;;;;;5097809;28;19965;-58
2023/05/15 06:42:08;;;;;;;;;;;9.40;99.90;;;;;;5114175;28;20284;-56
2023/05/15 06:44:35;;;;;;;;;;;9.50;99.90;;;;;;5110891;28;19946;-54
2023/05/15 06:47:01;;;;;;;;;;;9.50;99.90;;;;;;5115519;28;20273;-58
2023/05/15 06:49:28;;;;;;;;;;;9.40;99.90;;;;;;5114850;28;19919;-56
2023/05/15 06:51:55;;;;;;;;;;;9.40;99.90;;;;;;5115199;28;20291;-56
2023/05/15 06:54:21;;;;;;;;;;;9.40;99.90;;;;;;5112338;28;20000;-57
2023/05/15 06:56:48;;;;;;;;;;;9.40;99.90;;;;;;5115254;27;19926;-56
2023/05/15 06:59:14;;;;;;;;;;;9.40;99.90;;;;;;5115068;28;19931;-57
2023/05/15 07:01:41;;;;;;;;;;;9.50;99.90;;;;;;5111594;28;19920;-56
2023/05/15 07:04:08;;;;;;;;;;;9.40;99.90;;;;;;5115105;28;19927;-55
2023/05/15 07:06:35;;;;;;;;;;;9.40;99.90;;;;;;5114735;27;19955;-54
2023/05/15 07:09:02;;;;;;;;;;;9.50;99.90;;;;;;5114818;28;20291;-57
2023/05/15 07:11:28;;;;;;;;;;;9.50;99.90;;;;;;5111698;28;20019;-56
2023/05/15 07:13:55;;;;;;;;;;;9.50;99.90;;;;;;5114029;28;20332;-57
2023/05/15 07:16:22;;;;;;;;;;;9.50;99.90;;;;;;5114837;28;19962;-57
2023/05/15 07:18:48;;;;;;;;;;;9.60;99.90;;;;;;5107773;27;19958;-56
2023/05/15 07:21:15;;;;;;;;;;;9.70;99.90;;;;;;5114485;28;19920;-55
2023/05/15 07:23:42;;;;;;;;;;;9.70;99.90;;;;;;5110921;28;19927;-57
2023/05/15 07:26:08;;;;;;;;;;;9.70;99.90;;;;;;5114849;28;20002;-58
2023/05/15 07:28:42;;;;;;;;;;;9.80;99.90;;;;;;5113685;28;19926;-57
2023/05/15 07:31:09;;;;;;;;;;;9.80;99.90;;;;;;5114651;28;19974;-57
2023/05/15 07:33:36;;;;;;;;;;;9.80;99.90;;;;;;5093299;28;19920;-57
2023/05/15 07:36:02;;;;;;;;;;;9.80;99.90;;;;;;5107672;28;20323;-57
2023/05/15 07:38:29;;;;;;;;;;;9.80;99.90;;;;;;5114529;28;19977;-56
2023/05/15 07:40:56;;;;;;;;;;;9.80;99.90;;;;;;5102529;28;19928;-57
2023/05/15 07:43:22;;;;;;;;;;;9.80;99.90;;;;;;5109686;28;19993;-55
2023/05/15 07:45:49;;;;;;;;;;;9.80;99.90;;;;;;5114397;27;19924;-55
2023/05/15 07:48:16;;;;;;;;;;;9.80;99.90;;;;;;5114300;28;19919;-58
2023/05/15 07:50:45;;;;;;;;;;;9.80;99.90;;;;;;5111101;28;19924;-55
2023/05/15 07:53:12;;;;;;;;;;;9.60;99.90;;;;;;5113829;28;19955;-57
2023/05/15 07:55:39;;;;;;;;;;;9.60;99.90;;;;;;5113215;28;20018;-57
2023/05/15 07:58:07;;;;;;;;;;;9.60;99.90;;;;;;5114238;28;19970;-56
2023/05/15 08:00:33;;;;;;;;;;;9.70;99.90;;;;;;5107734;28;19969;-53
2023/05/15 08:03:00;;;;;;;;;;;9.70;99.90;;;;;;5113687;28;20018;-57
2023/05/15 08:05:28;;;;;;;;;;;9.80;99.90;;;;;;5112868;28;19924;-57
2023/05/15 08:07:55;;;;;;;;;;;9.80;99.90;;;;;;5114014;28;19923;-56
2023/05/15 08:10:22;;;;;;;;;;;9.70;99.90;;;;;;5109282;28;19927;-55
2023/05/15 08:12:49;;;;;;;;;;;9.80;99.90;;;;;;5113546;28;20363;-57
2023/05/15 08:15:16;;;;;;;;;;;9.90;99.90;;;;;;5112450;28;19988;-57
2023/05/15 08:17:42;;;;;;;;;;;9.80;99.90;;;;;;5108430;28;20419;-57
2023/05/15 08:20:09;;;;;;;;;;;9.90;99.90;;;;;;5113759;28;19919;-56
2023/05/15 08:22:36;;;;;;;;;;;10.00;99.90;;;;;;5112630;28;19920;-55
2023/05/15 08:25:02;;;;;;;;;;;10.00;99.90;;;;;;5111343;28;20407;-56
2023/05/15 08:27:29;;;;;;;;;;;10.10;99.90;;;;;;5110040;28;19924;-57
2023/05/15 08:29:56;;;;;;;;;;;10.10;99.90;;;;;;5096738;28;19949;-57
2023/05/15 08:32:23;;;;;;;;;;;10.00;99.90;;;;;;5112993;28;19919;-56
2023/05/15 08:34:49;;;;;;;;;;;10.10;99.90;;;;;;5111286;28;20343;-58
2023/05/15 08:37:16;;;;;;;;;;;10.10;99.90;;;;;;5113043;28;20363;-55
2023/05/15 08:39:43;;;;;;;;;;;10.00;99.90;;;;;;5106472;27;19920;-55
2023/05/15 08:42:13;;;;;;;;;;;10.10;99.90;;;;;;5092659;28;19924;-56
2023/05/15 08:44:40;;;;;;;;;;;10.00;99.90;;;;;;5110033;27;19920;-55
2023/05/15 08:47:07;;;;;;;;;;;10.20;99.90;;;;;;5113366;28;19959;-58
2023/05/15 08:49:39;;;;;;;;;;;10.40;99.90;;;;;;5107690;28;20287;-56
2023/05/15 08:52:08;;;;;;;;;;;10.50;99.90;;;;;;5112808;28;19920;-58
2023/05/15 08:54:34;;;;;;;;;;;10.60;99.90;;;;;;5112614;28;19973;-54
2023/05/15 08:57:01;;;;;;;;;;;10.70;99.90;;;;;;5108112;28;19965;-57
2023/05/15 08:59:28;;;;;;;;;;;10.60;99.90;;;;;;5108953;28;19923;-53
2023/05/15 09:01:55;;;;;;;;;;;10.70;99.90;;;;;;5103750;28;19920;-58
2023/05/15 09:04:22;;;;;;;;;;;10.80;99.90;;;;;;5112771;28;19950;-57
2023/05/15 09:06:49;;;;;;;;;;;11.40;99.90;;;;;;5107061;28;20392;-58
2023/05/15 09:09:17;;;;;;;;;;;11.10;99.90;;;;;;5112790;28;19920;-58
2023/05/15 09:11:44;;;;;;;;;;;11.40;99.90;;;;;;5107193;28;19946;-57
2023/05/15 09:14:11;;;;;;;;;;;11.50;99.90;;;;;;5112651;28;19992;-54
2023/05/15 09:16:37;;;;;;;;;;;11.60;99.90;;;;;;5103275;28;20420;-55
2023/05/15 09:19:05;;;;;;;;;;;11.80;99.90;;;;;;5112711;28;19923;-57
2023/05/15 09:21:32;;;;;;;;;;;12.00;99.90;;;;;;5108250;28;20339;-57
2023/05/15 09:24:18;;;;;;;;;;;12.20;99.90;;;;;;5112389;28;19919;-57
2023/05/15 09:26:46;;;;;;;;;;;12.30;99.90;;;;;;5112186;28;20325;-54
2023/05/15 09:29:15;;;;;;;;;;;12.40;99.90;;;;;;5108934;28;20253;-54
2023/05/15 09:31:47;;;;;;;;;;;12.20;99.90;;;;;;5110108;28;19926;-58
2023/05/15 09:34:14;;;;;;;;;;;12.10;99.90;;;;;;5111935;28;19930;-57
2023/05/15 09:36:41;;;;;;;;;;;11.90;99.90;;;;;;5112371;28;19920;-57
2023/05/15 09:39:07;;;;;;;;;;;12.00;99.90;;;;;;5103784;28;19973;-58
2023/05/15 09:41:39;;;;;;;;;;;12.10;99.90;;;;;;5111969;28;19973;-54
2023/05/15 09:44:16;;;;;;;;;;;12.20;99.90;;;;;;5107336;28;19919;-54
2023/05/15 09:46:46;;;;;;;;;;;12.20;99.90;;;;;;5112052;28;20295;-56
2023/05/15 09:49:13;;;;;;;;;;;12.10;99.90;;;;;;5110265;28;19919;-56
2023/05/15 09:51:42;;;;;;;;;;;12.30;99.90;;;;;;5085396;28;20438;-57
2023/05/15 09:54:16;;;;;;;;;;;12.40;99.90;;;;;;5104878;28;20154;-58
2023/05/15 09:56:46;;;;;;;;;;;12.50;99.90;;;;;;5112056;28;19942;-58
2023/05/15 09:59:14;;;;;;;;;;;12.60;99.90;;;;;;5103424;28;20540;-57
2023/05/15 10:01:42;;;;;;;;;;;12.80;99.90;;;;;;5111689;28;19920;-56
2023/05/15 10:04:09;;;;;;;;;;;13.30;99.90;;;;;;5104277;28;19924;-56
2023/05/15 10:06:36;;;;;;;;;;;13.70;99.90;;;;;;5103355;28;19939;-58
2023/05/15 10:09:03;;;;;;;;;;;13.90;99.90;;;;;;5111557;28;19974;-58
2023/05/15 10:11:32;;;;;;;;;;;14.10;99.90;;;;;;5107660;28;19927;-57
2023/05/15 10:13:59;;;;;;;;;;;14.30;99.90;;;;;;5111308;28;19924;-56
2023/05/15 10:16:27;;;;;;;;;;;14.50;99.90;;;;;;5109276;28;20337;-56
2023/05/15 10:18:55;;;;;;;;;;;14.60;99.90;;;;;;5110841;28;19927;-56
2023/05/15 10:21:23;;;;;;;;;;;14.50;99.90;;;;;;5110812;28;20357;-57
2023/05/15 10:23:52;;;;;;;;;;;14.30;99.90;;;;;;5111327;28;19955;-54
2023/05/15 10:26:22;;;;;;;;;;;14.10;99.90;;;;;;5107716;28;20010;-57
2023/05/15 10:28:49;;;;;;;;;;;13.70;99.90;;;;;;5111628;28;19969;-55
2023/05/15 10:31:17;;;;;;;;;;;13.50;99.90;;;;;;5111224;28;19971;-57
2023/05/15 10:33:44;;;;;;;;;;;13.40;99.90;;;;;;5106900;28;20022;-55
2023/05/15 10:36:13;;;;;;;;;;;13.20;99.90;;;;;;5111625;28;19920;-57
2023/05/15 10:38:40;;;;;;;;;;;13.30;99.90;;;;;;5107847;28;19928;-55
2023/05/15 10:41:07;;;;;;;;;;;13.50;99.90;;;;;;5092023;28;19949;-55
2023/05/15 10:43:43;;;;;;;;;;;13.70;99.90;;;;;;5095716;28;19973;-57
2023/05/15 10:46:10;;;;;;;;;;;14.10;99.90;;;;;;5098344;28;19930;-55
2023/05/15 10:48:39;;;;;;;;;;;14.50;99.90;;;;;;5099888;28;19927;-55
2023/05/15 10:51:13;;;;;;;;;;;14.80;99.90;;;;;;5091085;28;19950;-55
2023/05/15 10:53:40;;;;;;;;;;;15.00;99.90;;;;;;5107715;28;19958;-57
2023/05/15 10:56:11;;;;;;;;;;;15.10;99.90;;;;;;5106899;28;19963;-58
2023/05/15 10:58:37;;;;;;;;;;;15.30;99.90;;;;;;5108018;28;19919;-58
2023/05/15 11:01:22;;;;;;;;;;;15.30;99.90;;;;;;5105763;28;20015;-57
2023/05/15 11:03:49;;;;;;;;;;;15.10;99.90;;;;;;5113954;28;20370;-58
2023/05/15 11:06:26;;;;;;;;;;;15.00;99.90;;;;;;5111814;28;19973;-55
2023/05/15 11:09:13;;;;;;;;;;;14.80;99.90;;;;;;5114701;28;19951;-58
2023/05/15 11:11:56;;;;;;;;;;;14.60;99.90;;;;;;5095675;28;19920;-58
2023/05/15 11:14:24;;;;;;;;;;;14.00;99.90;;;;;;5111318;28;19973;-58
2023/05/15 11:16:51;;;;;;;;;;;13.90;99.90;;;;;;5114610;28;19962;-55
2023/05/15 11:19:20;;;;;;;;;;;13.90;99.90;;;;;;5114049;28;19986;-56
2023/05/15 11:21:52;;;;;;;;;;;13.70;99.90;;;;;;5106116;28;19920;-55
2023/05/15 11:24:19;;;;;;;;;;;13.60;99.90;;;;;;5110904;28;19971;-56
2023/05/15 11:26:50;;;;;;;;;;;13.80;99.90;;;;;;5114478;28;19923;-57
2023/05/15 11:29:17;;;;;;;;;;;13.90;99.90;;;;;;5114866;28;19919;-54
2023/05/15 11:31:44;;;;;;;;;;;13.90;99.90;;;;;;5110210;27;19920;-57
2023/05/15 11:34:12;;;;;;;;;;;13.80;99.90;;;;;;5114634;28;19920;-57
2023/05/15 11:36:38;;;;;;;;;;;13.90;99.90;;;;;;5114272;28;19919;-59
2023/05/15 11:39:09;;;;;;;;;;;13.70;99.90;;;;;;5106236;28;19954;-58
2023/05/15 11:41:36;;;;;;;;;;;13.70;99.90;;;;;;5103973;28;19967;-56
2023/05/15 11:44:03;;;;;;;;;;;13.60;99.90;;;;;;5113940;28;19920;-57
2023/05/15 11:46:31;;;;;;;;;;;13.80;99.90;;;;;;5114236;28;19924;-57
2023/05/15 11:48:57;;;;;;;;;;;13.80;99.90;;;;;;5101863;28;19920;-58
2023/05/15 11:51:26;;;;;;;;;;;13.70;99.90;;;;;;5114077;28;19924;-58
2023/05/15 11:53:53;;;;;;;;;;;13.50;99.90;;;;;;5104225;28;19926;-56
2023/05/15 11:56:21;;;;;;;;;;;13.20;99.90;;;;;;5074181;28;20273;-55
2023/05/15 11:58:53;;;;;;;;;;;13.20;99.90;;;;;;5102695;28;19973;-55
2023/05/15 12:01:19;;;;;;;;;;;13.30;99.90;;;;;;5113999;28;20292;-57
2023/05/15 12:03:47;;;;;;;;;;;13.30;99.90;;;;;;5103792;27;19923;-57
2023/05/15 12:06:15;;;;;;;;;;;13.30;99.90;;;;;;5100710;28;19947;-58
2023/05/15 12:08:41;;;;;;;;;;;13.30;99.90;;;;;;5110606;28;19919;-54
2023/05/15 12:11:08;;;;;;;;;;;13.30;99.90;;;;;;5103993;28;19964;-55
2023/05/15 12:13:35;;;;;;;;;;;13.50;99.90;;;;;;5113802;28;19959;-54
2023/05/15 12:16:02;;;;;;;;;;;13.60;99.90;;;;;;5078083;28;19974;-57
2023/05/15 12:18:30;;;;;;;;;;;13.70;99.90;;;;;;5114028;28;19920;-56
2023/05/15 12:20:57;;;;;;;;;;;13.80;99.90;;;;;;5105439;28;20273;-56
2023/05/15 12:23:24;;;;;;;;;;;13.50;99.90;;;;;;5113477;28;19985;-56
2023/05/15 12:25:58;;;;;;;;;;;13.40;99.90;;;;;;5112561;28;19924;-55
2023/05/15 12:28:25;;;;;;;;;;;13.20;99.90;;;;;;5113917;28;19970;-57
2023/05/15 12:30:52;;;;;;;;;;;13.00;99.90;;;;;;5104438;28;20317;-58
2023/05/15 12:33:19;;;;;;;;;;;13.10;99.90;;;;;;5113454;28;19962;-56
2023/05/15 12:35:50;;;;;;;;;;;13.20;99.90;;;;;;5111744;28;19963;-53
2023/05/15 12:38:18;;;;;;;;;;;13.00;99.90;;;;;;5102775;27;19931;-56
2023/05/15 12:40:45;;;;;;;;;;;12.80;99.90;;;;;;5109634;28;19973;-56
2023/05/15 12:43:12;;;;;;;;;;;12.80;99.90;;;;;;5103703;28;20576;-58
2023/05/15 12:45:41;;;;;;;;;;;12.80;99.90;;;;;;5109171;28;19920;-55
2023/05/15 12:48:12;;;;;;;;;;;12.90;99.90;;;;;;5112375;28;19930;-55
2023/05/15 12:50:39;;;;;;;;;;;13.00;99.90;;;;;;5112959;28;19920;-56
2023/05/15 12:53:06;;;;;;;;;;;13.30;99.90;;;;;;5105376;28;19973;-56
2023/05/15 12:55:34;;;;;;;;;;;13.70;99.90;;;;;;5113193;28;19920;-57
2023/05/15 12:58:02;;;;;;;;;;;13.90;99.90;;;;;;5113094;28;19919;-56
2023/05/15 13:00:30;;;;;;;;;;;14.30;99.90;;;;;;5106994;28;19923;-56
2023/05/15 13:02:57;;;;;;;;;;;13.90;99.90;;;;;;5110730;28;19927;-58
2023/05/15 13:05:25;;;;;;;;;;;14.00;99.90;;;;;;5102865;28;19923;-56
2023/05/15 13:07:51;;;;;;;;;;;13.90;99.90;;;;;;5112720;28;19919;-55
2023/05/15 13:10:22;;;;;;;;;;;13.70;99.90;;;;;;5111806;28;19923;-56
2023/05/15 13:12:50;;;;;;;;;;;13.50;99.90;;;;;;5112234;28;20375;-54
2023/05/15 13:15:37;;;;;;;;;;;13.20;99.90;;;;;;5106217;28;19932;-56
2023/05/15 13:18:08;;;;;;;;;;;13.30;99.90;;;;;;5112521;28;19920;-58
2023/05/15 13:20:39;;;;;;;;;;;13.70;99.90;;;;;;5108742;27;19920;-58
2023/05/15 13:23:06;;;;;;;;;;;13.90;99.90;;;;;;5111973;28;19945;-55
2023/05/15 13:25:33;;;;;;;;;;;14.10;99.90;;;;;;5112205;28;19969;-54
2023/05/15 13:28:02;;;;;;;;;;;14.10;99.90;;;;;;5110386;28;20343;-56
2023/05/15 13:30:29;;;;;;;;;;;13.90;99.90;;;;;;5100075;28;19924;-56
2023/05/15 13:32:55;;;;;;;;;;;13.90;99.90;;;;;;5111960;28;19942;-58
2023/05/15 13:35:22;;;;;;;;;;;13.60;99.90;;;;;;5105608;28;20019;-55
2023/05/15 13:37:49;;;;;;;;;;;13.70;99.90;;;;;;5100714;28;19920;-57
2023/05/15 13:40:16;;;;;;;;;;;13.80;99.90;;;;;;5104123;28;19919;-55
2023/05/15 13:42:43;;;;;;;;;;;13.40;99.90;;;;;;5111691;28;19970;-56
2023/05/15 13:45:10;;;;;;;;;;;13.40;99.90;;;;;;5112230;28;19926;-56
2023/05/15 13:47:39;;;;;;;;;;;13.30;99.90;;;;;;5103910;28;20396;-57
2023/05/15 13:50:07;;;;;;;;;;;13.50;99.90;;;;;;5111072;28;19955;-57
2023/05/15 13:52:34;;;;;;;;;;;13.80;99.90;;;;;;5102685;28;19961;-55
2023/05/15 13:55:01;;;;;;;;;;;14.10;99.90;;;;;;5111125;28;20384;-57
2023/05/15 13:57:27;;;;;;;;;;;14.40;99.90;;;;;;5098152;28;19972;-56
2023/05/15 13:59:54;;;;;;;;;;;14.40;99.90;;;;;;5112018;28;19920;-58
2023/05/15 14:02:24;;;;;;;;;;;14.50;99.90;;;;;;5103326;28;19920;-56
2023/05/15 14:04:52;;;;;;;;;;;14.70;99.90;;;;;;5094025;28;19969;-57
2023/05/15 14:07:22;;;;;;;;;;;14.90;99.90;;;;;;5110862;28;19973;-55
2023/05/15 14:09:49;;;;;;;;;;;15.30;99.90;;;;;;5111867;28;20006;-58
2023/05/15 14:12:16;;;;;;;;;;;15.00;99.90;;;;;;5101064;28;19920;-57
2023/05/15 14:14:44;;;;;;;;;;;15.00;99.90;;;;;;5111956;28;19923;-57
2023/05/15 14:17:11;;;;;;;;;;;14.70;99.90;;;;;;5111286;28;19920;-57
2023/05/15 14:19:37;;;;;;;;;;;14.30;99.90;;;;;;5108319;28;19928;-58
2023/05/15 14:22:04;;;;;;;;;;;14.50;99.90;;;;;;5101189;28;20363;-57
2023/05/15 14:24:30;;;;;;;;;;;14.80;99.90;;;;;;5111554;28;19928;-57
2023/05/15 14:26:57;;;;;;;;;;;15.10;99.90;;;;;;5111519;28;19923;-55
2023/05/15 14:29:24;;;;;;;;;;;15.00;99.90;;;;;;5107149;28;19963;-57